sensor_id;sensor_type;location;lat;lon;timestamp;pressure;altitude;pressure_sealevel;temperature;humidity
79362;BME280;68830;47.566;19.012;2024-01-15T00:01:42;98773.22;;;-0.34;100.00
79362;BME280;68830;47.566;19.012;2024-01-15T00:04:45;98779.25;;;-0.34;100.00
79362;BME280;68830;47.566;19.012;2024-01-15T00:07:48;98789.25;;;-0.27;100.00
79362;BME280;68830;47.566;19.012;2024-01-15T00:10:50;98793.41;;;-0.25;100.00
79362;BME280;68830;47.566;19.012;2024-01-15T00:13:52;98780.38;;;-0.25;100.00
79362;BME280;68830;47.566;19.012;2024-01-15T00:16:54;98752.53;;;-0.36;100.00
79362;BME280;68830;47.566;19.012;2024-01-15T00:19:57;98722.00;;;-0.45;100.00
79362;BME280;68830;47.566;19.012;2024-01-15T00:23:00;98742.66;;;-0.31;100.00
79362;BME280;68830;47.566;19.012;2024-01-15T00:26:02;98742.53;;;-0.29;100.00
79362;BME280;68830;47.566;19.012;2024-01-15T00:29:07;98736.22;;;-0.38;100.00
79362;BME280;68830;47.566;19.012;2024-01-15T00:32:09;98714.56;;;-0.38;100.00
79362;BME280;68830;47.566;19.012;2024-01-15T00:35:12;98730.41;;;-0.17;100.00
79362;BME280;68830;47.566;19.012;2024-01-15T00:38:15;98736.94;;;-0.12;100.00
79362;BME280;68830;47.566;19.012;2024-01-15T00:41:17;98732.22;;;-0.07;100.00
79362;BME280;68830;47.566;19.012;2024-01-15T00:44:20;98726.66;;;-0.13;100.00
79362;BME280;68830;47.566;19.012;2024-01-15T00:47:22;98727.78;;;0.07;100.00
79362;BME280;68830;47.566;19.012;2024-01-15T00:50:24;98704.56;;;-0.08;100.00
79362;BME280;68830;47.566;19.012;2024-01-15T00:53:27;98609.00;;;-0.65;100.00
79362;BME280;68830;47.566;19.012;2024-01-15T00:56:29;98687.88;;;-0.05;100.00
79362;BME280;68830;47.566;19.012;2024-01-15T00:59:32;98705.66;;;0.01;100.00
79362;BME280;68830;47.566;19.012;2024-01-15T01:02:34;98675.34;;;-0.11;100.00
79362;BME280;68830;47.566;19.012;2024-01-15T01:05:36;98707.38;;;0.24;100.00
79362;BME280;68830;47.566;19.012;2024-01-15T01:08:39;98708.09;;;0.26;100.00
79362;BME280;68830;47.566;19.012;2024-01-15T01:11:41;98696.13;;;0.24;100.00
79362;BME280;68830;47.566;19.012;2024-01-15T01:14:44;98686.06;;;0.19;100.00
79362;BME280;68830;47.566;19.012;2024-01-15T01:17:46;98695.19;;;0.25;100.00
79362;BME280;68830;47.566;19.012;2024-01-15T01:20:48;98687.84;;;0.19;100.00
79362;BME280;68830;47.566;19.012;2024-01-15T01:23:51;98686.38;;;0.15;100.00
79362;BME280;68830;47.566;19.012;2024-01-15T01:26:53;98682.00;;;0.15;100.00
79362;BME280;68830;47.566;19.012;2024-01-15T01:29:55;98682.47;;;0.09;100.00
79362;BME280;68830;47.566;19.012;2024-01-15T01:32:57;98580.81;;;-0.58;100.00
79362;BME280;68830;47.566;19.012;2024-01-15T01:35:59;98658.78;;;-0.10;100.00
79362;BME280;68830;47.566;19.012;2024-01-15T01:39:03;98660.59;;;0.01;100.00
79362;BME280;68830;47.566;19.012;2024-01-15T01:42:05;98645.53;;;-0.07;100.00
79362;BME280;68830;47.566;19.012;2024-01-15T01:45:08;98638.31;;;-0.15;100.00
79362;BME280;68830;47.566;19.012;2024-01-15T01:48:11;98638.78;;;-0.10;100.00
79362;BME280;68830;47.566;19.012;2024-01-15T01:51:13;98646.59;;;-0.10;100.00
79362;BME280;68830;47.566;19.012;2024-01-15T01:54:19;98618.88;;;-0.22;100.00
79362;BME280;68830;47.566;19.012;2024-01-15T01:57:21;98628.94;;;-0.17;100.00
79362;BME280;68830;47.566;19.012;2024-01-15T02:00:24;98629.16;;;-0.20;100.00
79362;BME280;68830;47.566;19.012;2024-01-15T02:03:27;98621.59;;;-0.23;100.00
79362;BME280;68830;47.566;19.012;2024-01-15T02:06:29;98617.19;;;-0.34;100.00
79362;BME280;68830;47.566;19.012;2024-01-15T02:09:33;98616.59;;;-0.38;100.00
79362;BME280;68830;47.566;19.012;2024-01-15T02:12:35;98619.28;;;-0.39;100.00
79362;BME280;68830;47.566;19.012;2024-01-15T02:15:38;98613.50;;;-0.43;100.00
79362;BME280;68830;47.566;19.012;2024-01-15T02:18:40;98586.63;;;-0.54;100.00
79362;BME280;68830;47.566;19.012;2024-01-15T02:21:43;98591.53;;;-0.63;100.00
79362;BME280;68830;47.566;19.012;2024-01-15T02:24:47;98617.16;;;-0.45;100.00
79362;BME280;68830;47.566;19.012;2024-01-15T02:27:49;98622.72;;;-0.63;100.00
79362;BME280;68830;47.566;19.012;2024-01-15T02:30:52;98603.78;;;-0.76;100.00
79362;BME280;68830;47.566;19.012;2024-01-15T02:33:54;98600.78;;;-0.82;100.00
79362;BME280;68830;47.566;19.012;2024-01-15T02:36:56;98501.38;;;-1.45;100.00
79362;BME280;68830;47.566;19.012;2024-01-15T02:39:59;98478.28;;;-1.61;100.00
79362;BME280;68830;47.566;19.012;2024-01-15T02:43:02;98593.56;;;-0.90;100.00
79362;BME280;68830;47.566;19.012;2024-01-15T02:46:05;98460.56;;;-1.67;100.00
79362;BME280;68830;47.566;19.012;2024-01-15T02:49:07;98604.66;;;-0.88;100.00
79362;BME280;68830;47.566;19.012;2024-01-15T02:52:10;98596.19;;;-0.79;100.00
79362;BME280;68830;47.566;19.012;2024-01-15T02:55:13;98515.19;;;-1.44;100.00
79362;BME280;68830;47.566;19.012;2024-01-15T02:58:15;98568.88;;;-1.08;100.00
79362;BME280;68830;47.566;19.012;2024-01-15T03:01:18;98387.75;;;-2.13;100.00
79362;BME280;68830;47.566;19.012;2024-01-15T03:04:21;98560.91;;;-0.94;100.00
79362;BME280;68830;47.566;19.012;2024-01-15T03:07:24;98559.78;;;-1.27;100.00
79362;BME280;68830;47.566;19.012;2024-01-15T03:10:27;98548.25;;;-1.23;100.00
79362;BME280;68830;47.566;19.012;2024-01-15T03:13:30;98545.16;;;-1.28;100.00
79362;BME280;68830;47.566;19.012;2024-01-15T03:16:32;98560.91;;;-1.18;100.00
79362;BME280;68830;47.566;19.012;2024-01-15T03:19:35;98551.81;;;-1.00;100.00
79362;BME280;68830;47.566;19.012;2024-01-15T03:22:37;98544.44;;;-0.82;100.00
79362;BME280;68830;47.566;19.012;2024-01-15T03:25:40;98540.28;;;-0.61;100.00
79362;BME280;68830;47.566;19.012;2024-01-15T03:28:43;98528.31;;;-0.74;100.00
79362;BME280;68830;47.566;19.012;2024-01-15T03:31:46;98557.09;;;-0.77;100.00
79362;BME280;68830;47.566;19.012;2024-01-15T03:34:48;98548.44;;;-0.89;100.00
79362;BME280;68830;47.566;19.012;2024-01-15T03:37:51;98563.84;;;-0.99;100.00
79362;BME280;68830;47.566;19.012;2024-01-15T03:40:55;98551.91;;;-1.01;100.00
79362;BME280;68830;47.566;19.012;2024-01-15T03:43:58;98561.91;;;-1.08;100.00
79362;BME280;68830;47.566;19.012;2024-01-15T03:47:00;98537.81;;;-1.10;100.00
79362;BME280;68830;47.566;19.012;2024-01-15T03:50:03;98559.31;;;-1.08;100.00
79362;BME280;68830;47.566;19.012;2024-01-15T03:53:05;98556.66;;;-0.95;100.00
79362;BME280;68830;47.566;19.012;2024-01-15T03:56:09;98557.78;;;-0.86;100.00
79362;BME280;68830;47.566;19.012;2024-01-15T03:59:11;98555.91;;;-0.84;100.00
79362;BME280;68830;47.566;19.012;2024-01-15T04:02:13;98544.44;;;-0.47;100.00
79362;BME280;68830;47.566;19.012;2024-01-15T04:05:16;98562.88;;;-0.15;100.00
79362;BME280;68830;47.566;19.012;2024-01-15T04:08:18;98524.06;;;-0.07;100.00
79362;BME280;68830;47.566;19.012;2024-01-15T04:11:22;98531.88;;;-0.07;100.00
79362;BME280;68830;47.566;19.012;2024-01-15T04:14:24;98505.75;;;-0.05;100.00
79362;BME280;68830;47.566;19.012;2024-01-15T04:17:27;98514.84;;;-0.11;100.00
79362;BME280;68830;47.566;19.012;2024-01-15T04:20:29;98516.63;;;-0.11;100.00
79362;BME280;68830;47.566;19.012;2024-01-15T04:23:32;98523.09;;;-0.17;100.00
79362;BME280;68830;47.566;19.012;2024-01-15T04:26:36;98517.09;;;-0.28;100.00
79362;BME280;68830;47.566;19.012;2024-01-15T04:29:38;98487.47;;;-0.50;100.00
79362;BME280;68830;47.566;19.012;2024-01-15T04:32:42;98515.31;;;-0.28;100.00
79362;BME280;68830;47.566;19.012;2024-01-15T04:35:44;98454.59;;;-0.62;100.00
79362;BME280;68830;47.566;19.012;2024-01-15T04:38:46;98493.56;;;-0.27;100.00
79362;BME280;68830;47.566;19.012;2024-01-15T04:41:50;98483.75;;;-0.23;100.00
79362;BME280;68830;47.566;19.012;2024-01-15T04:44:52;98500.78;;;-0.08;100.00
79362;BME280;68830;47.566;19.012;2024-01-15T04:47:54;98416.53;;;-0.74;100.00
79362;BME280;68830;47.566;19.012;2024-01-15T04:50:59;98515.44;;;-0.29;100.00
79362;BME280;68830;47.566;19.012;2024-01-15T04:54:02;98373.06;;;-1.30;100.00
79362;BME280;68830;47.566;19.012;2024-01-15T04:57:05;98354.47;;;-1.47;100.00
79362;BME280;68830;47.566;19.012;2024-01-15T05:00:08;98508.16;;;-0.48;100.00
79362;BME280;68830;47.566;19.012;2024-01-15T05:03:11;98366.16;;;-1.42;100.00
79362;BME280;68830;47.566;19.012;2024-01-15T05:06:13;98466.25;;;-0.79;100.00
79362;BME280;68830;47.566;19.012;2024-01-15T05:09:16;98489.78;;;-0.69;100.00
79362;BME280;68830;47.566;19.012;2024-01-15T05:12:21;98516.72;;;-0.24;100.00
79362;BME280;68830;47.566;19.012;2024-01-15T05:15:22;98523.00;;;-0.15;100.00
79362;BME280;68830;47.566;19.012;2024-01-15T05:18:25;98523.44;;;-0.33;100.00
79362;BME280;68830;47.566;19.012;2024-01-15T05:21:27;98531.53;;;-0.13;100.00
79362;BME280;68830;47.566;19.012;2024-01-15T05:24:30;98522.50;;;-0.20;100.00
79362;BME280;68830;47.566;19.012;2024-01-15T05:27:34;98513.75;;;-0.19;100.00
79362;BME280;68830;47.566;19.012;2024-01-15T05:30:36;98501.56;;;-0.41;100.00
79362;BME280;68830;47.566;19.012;2024-01-15T05:33:38;98525.00;;;-0.30;100.00
79362;BME280;68830;47.566;19.012;2024-01-15T05:36:40;98472.84;;;-0.86;100.00
79362;BME280;68830;47.566;19.012;2024-01-15T05:39:42;98512.97;;;-0.66;100.00
79362;BME280;68830;47.566;19.012;2024-01-15T05:42:46;98526.22;;;-0.58;100.00
79362;BME280;68830;47.566;19.012;2024-01-15T05:45:48;98530.97;;;-0.52;100.00
79362;BME280;68830;47.566;19.012;2024-01-15T05:48:50;98526.88;;;-0.43;100.00
79362;BME280;68830;47.566;19.012;2024-01-15T05:51:53;98522.84;;;-0.36;100.00
79362;BME280;68830;47.566;19.012;2024-01-15T05:54:55;98517.63;;;-0.36;100.00
79362;BME280;68830;47.566;19.012;2024-01-15T05:57:59;98494.75;;;-0.66;100.00
79362;BME280;68830;47.566;19.012;2024-01-15T06:01:01;98470.78;;;-0.70;100.00
79362;BME280;68830;47.566;19.012;2024-01-15T06:04:04;98503.72;;;-0.70;100.00
79362;BME280;68830;47.566;19.012;2024-01-15T06:07:06;98479.72;;;-0.85;100.00
79362;BME280;68830;47.566;19.012;2024-01-15T06:10:09;98504.28;;;-0.78;100.00
79362;BME280;68830;47.566;19.012;2024-01-15T06:13:12;98477.28;;;-0.64;100.00
79362;BME280;68830;47.566;19.012;2024-01-15T06:16:15;98357.84;;;-1.23;100.00
79362;BME280;68830;47.566;19.012;2024-01-15T06:19:22;98436.75;;;-0.67;100.00
79362;BME280;68830;47.566;19.012;2024-01-15T06:22:24;98410.41;;;-0.73;100.00
79362;BME280;68830;47.566;19.012;2024-01-15T06:25:26;98325.53;;;-1.08;100.00
79362;BME280;68830;47.566;19.012;2024-01-15T06:28:30;98474.53;;;-0.27;100.00
79362;BME280;68830;47.566;19.012;2024-01-15T06:31:32;98463.97;;;-0.37;100.00
79362;BME280;68830;47.566;19.012;2024-01-15T06:34:35;98340.28;;;-1.19;100.00
79362;BME280;68830;47.566;19.012;2024-01-15T06:37:37;98511.31;;;0.02;100.00
79362;BME280;68830;47.566;19.012;2024-01-15T06:40:40;98475.13;;;-0.13;100.00
79362;BME280;68830;47.566;19.012;2024-01-15T06:43:48;98506.69;;;0.05;100.00
79362;BME280;68830;47.566;19.012;2024-01-15T06:46:50;98482.09;;;-0.13;100.00
79362;BME280;68830;47.566;19.012;2024-01-15T06:49:53;98519.34;;;0.21;100.00
79362;BME280;68830;47.566;19.012;2024-01-15T06:52:56;98509.41;;;0.26;100.00
79362;BME280;68830;47.566;19.012;2024-01-15T06:55:58;98517.81;;;0.07;100.00
79362;BME280;68830;47.566;19.012;2024-01-15T06:59:01;98510.59;;;-0.01;100.00
79362;BME280;68830;47.566;19.012;2024-01-15T07:02:04;98447.66;;;-1.32;100.00
79362;BME280;68830;47.566;19.012;2024-01-15T07:05:07;98426.84;;;-3.18;100.00
79362;BME280;68830;47.566;19.012;2024-01-15T07:08:09;98452.34;;;-2.99;100.00
79362;BME280;68830;47.566;19.012;2024-01-15T07:11:11;98448.22;;;-2.89;100.00
79362;BME280;68830;47.566;19.012;2024-01-15T07:14:15;98455.03;;;-3.01;100.00
79362;BME280;68830;47.566;19.012;2024-01-15T07:17:18;98409.34;;;-3.81;100.00
79362;BME280;68830;47.566;19.012;2024-01-15T07:20:20;98476.50;;;-3.52;100.00
79362;BME280;68830;47.566;19.012;2024-01-15T07:23:22;98484.47;;;-3.28;100.00
79362;BME280;68830;47.566;19.012;2024-01-15T07:26:24;98306.69;;;-4.20;100.00
79362;BME280;68830;47.566;19.012;2024-01-15T07:29:28;98293.44;;;-4.28;100.00
79362;BME280;68830;47.566;19.012;2024-01-15T07:32:30;98374.16;;;-3.44;100.00
79362;BME280;68830;47.566;19.012;2024-01-15T07:35:33;98511.44;;;-1.77;100.00
79362;BME280;68830;47.566;19.012;2024-01-15T07:38:35;98485.53;;;-1.29;100.00
79362;BME280;68830;47.566;19.012;2024-01-15T07:41:37;98566.63;;;-0.30;100.00
79362;BME280;68830;47.566;19.012;2024-01-15T07:44:41;98556.41;;;-0.33;100.00
79362;BME280;68830;47.566;19.012;2024-01-15T07:47:43;98464.16;;;-0.74;100.00
79362;BME280;68830;47.566;19.012;2024-01-15T07:50:45;98435.75;;;-0.88;100.00
79362;BME280;68830;47.566;19.012;2024-01-15T07:53:48;98493.28;;;-0.35;100.00
79362;BME280;68830;47.566;19.012;2024-01-15T07:56:54;98593.56;;;0.38;100.00
79362;BME280;68830;47.566;19.012;2024-01-15T07:59:58;98571.28;;;0.67;100.00
79362;BME280;68830;47.566;19.012;2024-01-15T08:03:00;98420.13;;;-0.99;100.00
79362;BME280;68830;47.566;19.012;2024-01-15T08:06:05;98539.59;;;-0.86;100.00
79362;BME280;68830;47.566;19.012;2024-01-15T08:09:07;98496.97;;;-0.26;100.00
79362;BME280;68830;47.566;19.012;2024-01-15T08:12:11;98529.16;;;-0.05;100.00
79362;BME280;68830;47.566;19.012;2024-01-15T08:15:16;98506.28;;;-0.35;100.00
79362;BME280;68830;47.566;19.012;2024-01-15T08:18:20;98534.88;;;-0.46;100.00
79362;BME280;68830;47.566;19.012;2024-01-15T08:21:23;98416.59;;;-0.98;100.00
79362;BME280;68830;47.566;19.012;2024-01-15T08:24:26;98529.00;;;-0.37;100.00
79362;BME280;68830;47.566;19.012;2024-01-15T08:27:29;98527.72;;;-0.20;100.00
79362;BME280;68830;47.566;19.012;2024-01-15T08:30:33;98493.06;;;-0.32;100.00
79362;BME280;68830;47.566;19.012;2024-01-15T08:33:37;98491.19;;;-0.08;100.00
79362;BME280;68830;47.566;19.012;2024-01-15T08:36:39;98514.72;;;0.24;100.00
79362;BME280;68830;47.566;19.012;2024-01-15T08:39:43;98530.94;;;0.50;100.00
79362;BME280;68830;47.566;19.012;2024-01-15T08:42:45;98530.06;;;0.72;100.00
79362;BME280;68830;47.566;19.012;2024-01-15T08:45:52;98514.41;;;0.83;100.00
79362;BME280;68830;47.566;19.012;2024-01-15T08:48:55;98544.19;;;1.13;100.00
79362;BME280;68830;47.566;19.012;2024-01-15T08:51:57;98500.75;;;0.91;100.00
79362;BME280;68830;47.566;19.012;2024-01-15T08:54:59;98540.63;;;1.35;100.00
79362;BME280;68830;47.566;19.012;2024-01-15T08:58:02;98535.00;;;1.50;100.00
79362;BME280;68830;47.566;19.012;2024-01-15T09:01:06;98513.31;;;1.50;98.68
79362;BME280;68830;47.566;19.012;2024-01-15T09:04:09;98551.06;;;1.88;97.32
79362;BME280;68830;47.566;19.012;2024-01-15T09:07:11;98532.78;;;1.88;95.26
79362;BME280;68830;47.566;19.012;2024-01-15T09:10:13;98531.25;;;1.85;91.94
79362;BME280;68830;47.566;19.012;2024-01-15T09:13:15;98550.75;;;2.12;91.99
79362;BME280;68830;47.566;19.012;2024-01-15T09:16:20;98520.50;;;2.09;88.67
79362;BME280;68830;47.566;19.012;2024-01-15T09:19:22;98377.97;;;1.26;87.93
79362;BME280;68830;47.566;19.012;2024-01-15T09:22:24;98403.13;;;1.58;84.76
79362;BME280;68830;47.566;19.012;2024-01-15T09:25:26;98493.50;;;2.29;85.38
79362;BME280;68830;47.566;19.012;2024-01-15T09:28:29;98514.50;;;2.58;82.82
79362;BME280;68830;47.566;19.012;2024-01-15T09:31:32;98515.59;;;2.56;82.31
79362;BME280;68830;47.566;19.012;2024-01-15T09:34:35;98507.94;;;2.64;82.38
79362;BME280;68830;47.566;19.012;2024-01-15T09:37:37;98514.44;;;2.79;79.95
79362;BME280;68830;47.566;19.012;2024-01-15T09:40:48;98518.69;;;2.80;79.65
79362;BME280;68830;47.566;19.012;2024-01-15T09:43:51;98522.03;;;3.02;79.91
79362;BME280;68830;47.566;19.012;2024-01-15T09:46:55;98429.47;;;2.35;78.05
79362;BME280;68830;47.566;19.012;2024-01-15T09:49:58;98500.53;;;2.88;77.68
79362;BME280;68830;47.566;19.012;2024-01-15T09:53:00;98521.06;;;3.03;77.19
79362;BME280;68830;47.566;19.012;2024-01-15T09:56:03;98490.63;;;3.02;76.03
79362;BME280;68830;47.566;19.012;2024-01-15T09:59:07;98451.56;;;3.00;75.10
79362;BME280;68830;47.566;19.012;2024-01-15T10:02:12;98487.59;;;3.35;74.64
79362;BME280;68830;47.566;19.012;2024-01-15T10:05:16;98462.00;;;3.19;73.96
79362;BME280;68830;47.566;19.012;2024-01-15T10:08:19;98479.25;;;3.22;73.33
79362;BME280;68830;47.566;19.012;2024-01-15T10:11:21;98471.75;;;3.46;72.09
79362;BME280;68830;47.566;19.012;2024-01-15T10:14:24;98427.19;;;3.19;71.48
79362;BME280;68830;47.566;19.012;2024-01-15T10:17:27;98470.66;;;3.58;70.85
79362;BME280;68830;47.566;19.012;2024-01-15T10:20:31;98461.81;;;3.59;71.17
79362;BME280;68830;47.566;19.012;2024-01-15T10:23:34;98430.72;;;3.47;69.91
79362;BME280;68830;47.566;19.012;2024-01-15T10:26:37;98441.03;;;3.58;70.30
79362;BME280;68830;47.566;19.012;2024-01-15T10:29:41;98427.78;;;3.69;70.51
79362;BME280;68830;47.566;19.012;2024-01-15T10:32:57;98394.75;;;3.58;69.44
79362;BME280;68830;47.566;19.012;2024-01-15T10:36:00;98404.47;;;3.76;68.39
79362;BME280;68830;47.566;19.012;2024-01-15T10:39:02;98399.22;;;3.76;68.60
79362;BME280;68830;47.566;19.012;2024-01-15T10:42:05;98398.69;;;3.72;68.48
79362;BME280;68830;47.566;19.012;2024-01-15T10:45:09;98404.91;;;3.71;69.03
79362;BME280;68830;47.566;19.012;2024-01-15T10:48:12;98434.09;;;3.76;68.51
79362;BME280;68830;47.566;19.012;2024-01-15T10:51:15;98440.91;;;3.97;69.58
79362;BME280;68830;47.566;19.012;2024-01-15T10:54:18;98431.38;;;3.96;68.45
79362;BME280;68830;47.566;19.012;2024-01-15T10:57:21;98428.34;;;4.00;67.32
79362;BME280;68830;47.566;19.012;2024-01-15T11:00:24;98388.25;;;4.00;67.73
79362;BME280;68830;47.566;19.012;2024-01-15T11:03:28;98389.69;;;4.12;67.01
79362;BME280;68830;47.566;19.012;2024-01-15T11:06:41;98344.16;;;3.95;67.92
79362;BME280;68830;47.566;19.012;2024-01-15T11:09:45;98388.03;;;4.56;67.67
79362;BME280;68830;47.566;19.012;2024-01-15T11:12:48;98399.78;;;4.52;68.19
79362;BME280;68830;47.566;19.012;2024-01-15T11:15:57;98403.38;;;4.51;67.25
79362;BME280;68830;47.566;19.012;2024-01-15T11:19:05;98353.78;;;4.40;66.46
79362;BME280;68830;47.566;19.012;2024-01-15T11:22:10;98390.13;;;4.35;67.49
79362;BME280;68830;47.566;19.012;2024-01-15T11:25:14;98386.16;;;4.48;66.57
79362;BME280;68830;47.566;19.012;2024-01-15T11:28:46;98393.00;;;4.77;65.28
79362;BME280;68830;47.566;19.012;2024-01-15T11:32:05;98401.53;;;4.97;64.83
79362;BME280;68830;47.566;19.012;2024-01-15T11:35:09;98400.47;;;5.07;63.66
79362;BME280;68830;47.566;19.012;2024-01-15T11:38:11;98418.84;;;5.07;62.79
79362;BME280;68830;47.566;19.012;2024-01-15T11:41:13;98385.25;;;4.93;63.22
79362;BME280;68830;47.566;19.012;2024-01-15T11:44:17;98394.66;;;4.60;64.72
79362;BME280;68830;47.566;19.012;2024-01-15T11:47:50;98413.38;;;4.83;63.49
79362;BME280;68830;47.566;19.012;2024-01-15T11:51:00;98404.16;;;4.79;64.26
79362;BME280;68830;47.566;19.012;2024-01-15T11:54:04;98414.28;;;4.92;64.77
79362;BME280;68830;47.566;19.012;2024-01-15T11:57:18;98390.03;;;5.16;63.46
79362;BME280;68830;47.566;19.012;2024-01-15T12:00:24;98391.03;;;4.97;62.79
79362;BME280;68830;47.566;19.012;2024-01-15T12:03:26;98403.09;;;4.90;63.95
79362;BME280;68830;47.566;19.012;2024-01-15T12:06:31;98278.25;;;4.35;62.95
79362;BME280;68830;47.566;19.012;2024-01-15T12:09:33;98353.78;;;4.40;62.48
79362;BME280;68830;47.566;19.012;2024-01-15T12:12:46;98292.25;;;4.08;63.81
79362;BME280;68830;47.566;19.012;2024-01-15T12:15:49;98341.34;;;4.24;63.29
79362;BME280;68830;47.566;19.012;2024-01-15T12:18:52;98397.78;;;4.46;63.92
79362;BME280;68830;47.566;19.012;2024-01-15T12:21:56;98370.78;;;4.36;64.35
79362;BME280;68830;47.566;19.012;2024-01-15T12:24:58;98371.72;;;4.44;64.61
79362;BME280;68830;47.566;19.012;2024-01-15T12:28:01;98360.63;;;4.50;64.44
79362;BME280;68830;47.566;19.012;2024-01-15T12:31:03;98356.97;;;4.61;64.32
79362;BME280;68830;47.566;19.012;2024-01-15T12:34:07;98355.31;;;4.60;64.49
79362;BME280;68830;47.566;19.012;2024-01-15T12:37:11;98349.78;;;4.63;64.63
79362;BME280;68830;47.566;19.012;2024-01-15T12:40:18;98350.00;;;4.52;64.05
79362;BME280;68830;47.566;19.012;2024-01-15T12:43:21;98324.25;;;4.47;64.28
79362;BME280;68830;47.566;19.012;2024-01-15T12:46:23;98326.41;;;4.52;63.56
79362;BME280;68830;47.566;19.012;2024-01-15T12:49:25;98343.97;;;4.42;63.42
79362;BME280;68830;47.566;19.012;2024-01-15T12:52:29;98330.31;;;4.30;64.13
79362;BME280;68830;47.566;19.012;2024-01-15T12:55:32;98342.59;;;4.47;64.60
79362;BME280;68830;47.566;19.012;2024-01-15T12:58:36;98330.44;;;4.46;65.25
79362;BME280;68830;47.566;19.012;2024-01-15T13:01:38;98321.91;;;4.44;64.49
79362;BME280;68830;47.566;19.012;2024-01-15T13:04:40;98312.47;;;4.52;65.85
79362;BME280;68830;47.566;19.012;2024-01-15T13:07:44;98334.88;;;4.46;65.39
79362;BME280;68830;47.566;19.012;2024-01-15T13:10:46;98343.97;;;4.42;65.42
79362;BME280;68830;47.566;19.012;2024-01-15T13:13:49;98345.22;;;4.47;65.23
79362;BME280;68830;47.566;19.012;2024-01-15T13:16:51;98344.53;;;4.45;65.83
79362;BME280;68830;47.566;19.012;2024-01-15T13:19:54;98326.38;;;4.16;65.92
79362;BME280;68830;47.566;19.012;2024-01-15T13:22:57;98342.13;;;4.34;65.08
79362;BME280;68830;47.566;19.012;2024-01-15T13:26:00;98340.78;;;4.30;65.43
79362;BME280;68830;47.566;19.012;2024-01-15T13:29:02;98338.72;;;4.24;65.64
79362;BME280;68830;47.566;19.012;2024-01-15T13:32:05;98332.66;;;4.06;65.59
79362;BME280;68830;47.566;19.012;2024-01-15T13:35:09;98350.84;;;4.07;66.22
79362;BME280;68830;47.566;19.012;2024-01-15T13:38:16;98352.75;;;3.87;67.93
79362;BME280;68830;47.566;19.012;2024-01-15T13:41:19;98356.03;;;3.89;67.30
79362;BME280;68830;47.566;19.012;2024-01-15T13:44:21;98358.81;;;3.88;67.96
79362;BME280;68830;47.566;19.012;2024-01-15T13:47:24;98311.69;;;3.51;67.79
79362;BME280;68830;47.566;19.012;2024-01-15T13:50:26;98235.34;;;3.00;69.00
79362;BME280;68830;47.566;19.012;2024-01-15T13:53:30;98355.31;;;3.70;68.72
79362;BME280;68830;47.566;19.012;2024-01-15T13:56:33;98357.38;;;3.66;68.97
79362;BME280;68830;47.566;19.012;2024-01-15T13:59:37;98359.16;;;3.66;69.89
79362;BME280;68830;47.566;19.012;2024-01-15T14:02:38;98362.88;;;3.73;68.85
79362;BME280;68830;47.566;19.012;2024-01-15T14:05:41;98356.75;;;3.54;69.80
79362;BME280;68830;47.566;19.012;2024-01-15T14:08:44;98358.13;;;3.49;70.08
79362;BME280;68830;47.566;19.012;2024-01-15T14:11:46;98346.59;;;3.42;70.84
79362;BME280;68830;47.566;19.012;2024-01-15T14:14:48;98363.50;;;3.47;71.21
79362;BME280;68830;47.566;19.012;2024-01-15T14:17:50;98367.53;;;3.42;71.79
79362;BME280;68830;47.566;19.012;2024-01-15T14:20:53;98364.88;;;3.51;70.71
79362;BME280;68830;47.566;19.012;2024-01-15T14:23:59;98367.91;;;3.47;71.16
79362;BME280;68830;47.566;19.012;2024-01-15T14:27:01;98363.81;;;3.35;72.23
79362;BME280;68830;47.566;19.012;2024-01-15T14:30:03;98352.28;;;3.37;73.49
79362;BME280;68830;47.566;19.012;2024-01-15T14:33:07;98332.44;;;2.78;75.37
79362;BME280;68830;47.566;19.012;2024-01-15T14:36:10;98350.72;;;2.49;79.14
79362;BME280;68830;47.566;19.012;2024-01-15T14:39:13;98359.66;;;2.95;76.88
79362;BME280;68830;47.566;19.012;2024-01-15T14:42:15;98351.06;;;3.22;73.83
79362;BME280;68830;47.566;19.012;2024-01-15T14:45:17;98362.66;;;3.00;74.73
79362;BME280;68830;47.566;19.012;2024-01-15T14:48:19;98368.13;;;3.26;72.75
79362;BME280;68830;47.566;19.012;2024-01-15T14:51:21;98371.72;;;3.06;74.61
79362;BME280;68830;47.566;19.012;2024-01-15T14:54:24;98368.81;;;3.18;73.75
79362;BME280;68830;47.566;19.012;2024-01-15T14:57:27;98374.75;;;3.11;73.99
79362;BME280;68830;47.566;19.012;2024-01-15T15:00:29;98377.91;;;3.05;74.50
79362;BME280;68830;47.566;19.012;2024-01-15T15:03:31;98361.41;;;3.04;74.06
79362;BME280;68830;47.566;19.012;2024-01-15T15:06:34;98361.56;;;3.03;73.81
79362;BME280;68830;47.566;19.012;2024-01-15T15:09:38;98343.00;;;2.96;72.73
79362;BME280;68830;47.566;19.012;2024-01-15T15:12:39;98325.81;;;2.84;73.08
79362;BME280;68830;47.566;19.012;2024-01-15T15:15:42;98350.13;;;3.04;72.89
79362;BME280;68830;47.566;19.012;2024-01-15T15:18:44;98366.38;;;2.97;73.66
79362;BME280;68830;47.566;19.012;2024-01-15T15:21:48;98344.63;;;2.97;73.04
79362;BME280;68830;47.566;19.012;2024-01-15T15:24:51;98377.25;;;3.03;72.89
79362;BME280;68830;47.566;19.012;2024-01-15T15:27:53;98369.81;;;2.88;73.46
79362;BME280;68830;47.566;19.012;2024-01-15T15:30:56;98353.88;;;2.82;75.36
79362;BME280;68830;47.566;19.012;2024-01-15T15:33:59;98329.53;;;2.72;75.10
79362;BME280;68830;47.566;19.012;2024-01-15T15:37:01;98354.81;;;2.90;73.48
79362;BME280;68830;47.566;19.012;2024-01-15T15:40:06;98355.28;;;2.76;74.42
79362;BME280;68830;47.566;19.012;2024-01-15T15:43:10;98347.53;;;2.84;74.32
79362;BME280;68830;47.566;19.012;2024-01-15T15:46:12;98333.09;;;2.70;75.18
79362;BME280;68830;47.566;19.012;2024-01-15T15:49:14;98357.16;;;2.74;74.63
79362;BME280;68830;47.566;19.012;2024-01-15T15:52:17;98348.94;;;2.69;74.55
79362;BME280;68830;47.566;19.012;2024-01-15T15:55:20;98361.56;;;2.74;74.16
79362;BME280;68830;47.566;19.012;2024-01-15T15:58:22;98360.34;;;2.58;75.76